Time;durP1;ratioP1;P1;durP2;ratioP2;P2;SDS_P1;SDS_P2;PMS_P1;PMS_P2;Temp;Humidity;BMP_temperature;BMP_pressure;BME280_temperature;BME280_humidity;BME280_pressure;Samples;Min_cycle;Max_cycle;Signal;HPM_P1;HPM_P2
2022/07/19 00:00:17;;;;;;;8.45;4.90;;;;;;;17.28;60.94;100838.50;2090816;84;31677;-60
2022/07/19 00:03:21;;;;;;;9.03;5.03;;;;;;;17.28;60.98;100839.86;2090786;84;27868;-59
2022/07/19 00:06:24;;;;;;;7.22;4.60;;;;;;;17.27;61.07;100831.82;2087532;84;29486;-59
2022/07/19 00:09:28;;;;;;;14.40;5.37;;;;;;;17.25;61.13;100842.77;2083895;85;27708;-61
2022/07/19 00:12:30;;;;;;;8.93;5.58;;;;;;;17.22;61.13;100841.63;2084166;85;29455;-60
2022/07/19 00:15:32;;;;;;;7.42;5.20;;;;;;;17.17;61.27;100838.36;2083964;85;31124;-61
2022/07/19 00:18:34;;;;;;;9.23;4.78;;;;;;;17.11;61.31;100842.36;2083657;85;34003;-61
2022/07/19 00:21:37;;;;;;;13.25;6.08;;;;;;;17.05;61.30;100845.47;2083784;85;30317;-61
2022/07/19 00:24:38;;;;;;;9.18;5.55;;;;;;;16.99;61.35;100848.12;2081493;84;28038;-61
2022/07/19 00:27:42;;;;;;;14.73;6.28;;;;;;;16.92;61.45;100832.37;2079772;85;29976;-61
2022/07/19 00:30:44;;;;;;;14.85;6.72;;;;;;;16.86;61.53;100836.36;2080332;85;31019;-60
2022/07/19 00:33:47;;;;;;;9.78;6.20;;;;;;;16.79;61.60;100838.62;2079732;85;33680;-59
2022/07/19 00:36:48;;;;;;;9.08;5.75;;;;;;;16.71;61.75;100845.90;2079781;85;29332;-62
2022/07/19 00:39:51;;;;;;;13.05;6.25;;;;;;;16.64;61.96;100841.00;2079988;85;27791;-60
2022/07/19 00:42:56;;;;;;;9.45;6.35;;;;;;;16.58;62.03;100842.28;2079811;85;29861;-61
2022/07/19 00:45:59;;;;;;;11.00;5.65;;;;;;;16.51;62.18;100846.34;2080470;85;31072;-59
2022/07/19 00:49:03;;;;;;;9.15;5.72;;;;;;;16.43;62.40;100848.20;2080138;85;33045;-59
2022/07/19 00:52:06;;;;;;;14.35;6.58;;;;;;;16.35;62.59;100844.66;2079738;85;29362;-59
2022/07/19 00:55:09;;;;;;;12.58;6.05;;;;;;;16.29;62.67;100841.02;2083128;85;27657;-62
2022/07/19 00:58:17;;;;;;;12.55;6.53;;;;;;;16.23;62.70;100846.81;2101803;84;30794;-61
2022/07/19 01:01:16;;;;;;;10.95;5.40;;;;;;;16.18;62.89;100836.77;2065690;85;31014;-61
2022/07/19 01:04:18;;;;;;;9.83;5.97;;;;;;;16.13;63.08;100833.02;2076569;84;33342;-59
2022/07/19 01:07:20;;;;;;;8.95;6.00;;;;;;;16.07;63.19;100836.98;2101884;84;29334;-58
2022/07/19 01:10:22;;;;;;;9.30;6.05;;;;;;;16.04;63.47;100838.53;2108502;84;27707;-62
2022/07/19 01:13:24;;;;;;;14.58;6.45;;;;;;;16.01;63.79;100840.07;2108886;84;29058;-61
2022/07/19 01:16:26;;;;;;;9.93;6.15;;;;;;;15.98;63.92;100843.46;2108289;84;30879;-60
2022/07/19 01:19:28;;;;;;;12.53;5.50;;;;;;;15.94;64.13;100844.15;2108151;84;34142;-62
2022/07/19 01:22:30;;;;;;;9.88;5.95;;;;;;;15.89;64.20;100838.16;2108168;84;30148;-59
2022/07/19 01:25:35;;;;;;;10.98;6.10;;;;;;;15.84;64.41;100838.42;2105320;84;28078;-61
2022/07/19 01:28:36;;;;;;;10.45;6.20;;;;;;;15.80;64.51;100841.78;2104920;84;28664;-60
2022/07/19 01:31:39;;;;;;;11.57;6.25;;;;;;;15.75;64.57;100836.28;2104838;84;31080;-60
2022/07/19 01:34:40;;;;;;;14.53;6.28;;;;;;;15.71;64.85;100840.17;2104447;84;33028;-61
2022/07/19 01:37:42;;;;;;;9.95;6.25;;;;;;;15.66;64.76;100840.43;2104585;84;29795;-60
2022/07/19 01:40:43;;;;;;;10.68;6.10;;;;;;;15.62;64.95;100845.16;2105004;84;27738;-61
2022/07/19 01:43:44;;;;;;;9.93;5.92;;;;;;;15.57;65.00;100841.88;2104985;84;28554;-61
2022/07/19 01:46:46;;;;;;;8.80;5.85;;;;;;;15.53;65.02;100839.46;2104637;84;31618;-60
2022/07/19 01:49:48;;;;;;;8.40;5.83;;;;;;;15.49;65.18;100842.84;2105081;84;33347;-61
2022/07/19 01:52:50;;;;;;;11.65;5.70;;;;;;;15.44;65.44;100842.25;2105287;84;29721;-62
2022/07/19 01:55:51;;;;;;;8.70;6.08;;;;;;;15.42;65.58;100840.13;2108243;84;27798;-61
2022/07/19 01:58:54;;;;;;;9.90;7.22;;;;;;;15.39;65.65;100839.84;2108923;84;29061;-59
2022/07/19 02:01:55;;;;;;;11.53;6.35;;;;;;;15.35;65.62;100840.98;2108234;84;31060;-61
2022/07/19 02:04:56;;;;;;;8.65;5.85;;;;;;;15.31;66.02;100837.61;2108161;84;33002;-61
2022/07/19 02:07:57;;;;;;;16.35;6.25;;;;;;;15.29;66.23;100837.33;2094477;84;29280;-59
2022/07/19 02:10:59;;;;;;;10.85;5.60;;;;;;;15.29;66.37;100830.08;2090550;84;27667;-60
2022/07/19 02:14:01;;;;;;;7.40;5.33;;;;;;;15.30;66.56;100829.13;2102547;84;28596;-61
2022/07/19 02:17:02;;;;;;;13.55;6.47;;;;;;;15.24;66.94;100808.38;2089620;85;31111;-61
2022/07/19 02:20:06;;;;;;;12.47;6.10;;;;;;;15.24;66.94;100808.38;2089562;85;33003;-61
2022/07/19 02:23:07;;;;;;;11.48;6.05;;;;;;;15.27;66.97;100804.16;2089934;85;29310;-61
2022/07/19 02:26:09;;;;;;;9.20;5.30;;;;;;;15.45;67.03;100830.48;2089871;84;27720;-62
2022/07/19 02:29:10;;;;;;;11.40;5.92;;;;;;;15.49;67.26;100829.34;2089638;85;29920;-61
2022/07/19 02:32:12;;;;;;;11.05;6.33;;;;;;;15.40;67.31;100807.83;2090640;85;31270;-60
2022/07/19 02:35:13;;;;;;;8.60;5.37;;;;;;;15.57;67.40;100827.52;2101724;84;34183;-61
2022/07/19 02:38:14;;;;;;;8.75;5.67;;;;;;;15.61;67.43;100835.32;2090027;85;30480;-61
2022/07/19 02:41:16;;;;;;;8.03;6.17;;;;;;;15.54;67.54;100812.84;2089152;85;27601;-61
2022/07/19 02:44:18;;;;;;;11.33;5.87;;;;;;;15.73;67.52;100840.91;2089090;85;29104;-62
2022/07/19 02:47:19;;;;;;;11.73;5.90;;;;;;;15.76;67.50;100841.61;2088920;85;32253;-59
2022/07/19 02:50:21;;;;;;;10.68;6.08;;;;;;;15.83;67.53;100839.85;2088849;85;34132;-62
2022/07/19 02:53:23;;;;;;;13.05;5.65;;;;;;;15.91;67.61;100835.73;2089170;85;29730;-61
2022/07/19 02:56:25;;;;;;;10.75;5.83;;;;;;;15.91;67.61;100835.73;2102087;84;27735;-61
2022/07/19 02:59:26;;;;;;;9.40;5.62;;;;;;;15.96;67.69;100835.47;2089655;85;29946;-61
2022/07/19 03:02:28;;;;;;;11.88;6.12;;;;;;;16.00;67.64;100835.62;2090257;84;31011;-61
2022/07/19 03:05:29;;;;;;;8.88;5.90;;;;;;;16.05;67.68;100839.41;2089662;84;33406;-62
2022/07/19 03:08:30;;;;;;;12.95;5.67;;;;;;;16.11;67.73;100837.65;2104844;84;29682;-62
2022/07/19 03:11:32;;;;;;;8.90;6.40;;;;;;;16.15;67.76;100839.66;2109086;84;27646;-62
2022/07/19 03:14:33;;;;;;;8.80;6.12;;;;;;;16.20;67.74;100842.48;2108624;84;28826;-62
2022/07/19 03:17:34;;;;;;;11.08;6.35;;;;;;;16.23;67.62;100842.75;2108764;84;30895;-62
2022/07/19 03:20:35;;;;;;;10.98;6.20;;;;;;;16.26;67.69;100843.91;2108488;84;34148;-61
2022/07/19 03:23:37;;;;;;;11.88;6.08;;;;;;;16.28;67.59;100841.98;2106537;84;29385;-61
2022/07/19 03:26:38;;;;;;;8.85;5.97;;;;;;;16.32;67.71;100840.79;2104869;83;28274;-61
2022/07/19 03:29:40;;;;;;;12.03;5.83;;;;;;;16.38;67.87;100843.60;2104848;84;29022;-62
2022/07/19 03:32:41;;;;;;;11.12;5.90;;;;;;;16.43;67.78;100843.30;2104987;84;30772;-59
2022/07/19 03:35:44;;;;;;;13.80;5.80;;;;;;;16.48;67.81;100841.13;2105109;84;32733;-62
2022/07/19 03:38:45;;;;;;;10.78;6.70;;;;;;;16.54;67.80;100833.98;2104881;84;29324;-62
2022/07/19 03:41:46;;;;;;;10.72;6.20;;;;;;;16.59;67.82;100844.02;2105072;84;27684;-62
2022/07/19 03:44:47;;;;;;;9.00;5.90;;;;;;;16.63;67.60;100840.62;2105328;84;29455;-61
2022/07/19 03:47:49;;;;;;;12.45;5.80;;;;;;;16.69;67.75;100839.72;2104532;84;32304;-61
2022/07/19 03:50:50;;;;;;;10.03;5.65;;;;;;;16.77;67.72;100835.64;2104866;84;32912;-61
2022/07/19 03:53:52;;;;;;;11.05;6.00;;;;;;;16.85;67.77;100839.56;2107130;84;30458;-60
2022/07/19 03:56:55;;;;;;;10.63;6.22;;;;;;;16.92;67.71;100845.43;2108709;84;27608;-62
2022/07/19 03:59:57;;;;;;;11.18;6.67;;;;;;;17.00;67.56;100843.09;2108665;84;28698;-61
2022/07/19 04:02:58;;;;;;;10.98;6.20;;;;;;;17.09;67.50;100841.59;2108944;84;31365;-60
2022/07/19 04:05:59;;;;;;;10.58;5.95;;;;;;;17.18;67.48;100837.39;2108464;84;32733;-61
2022/07/19 04:09:00;;;;;;;9.73;5.95;;;;;;;17.27;67.38;100839.94;2092728;83;29737;-59
2022/07/19 04:12:02;;;;;;;13.22;6.90;;;;;;;17.38;67.32;100844.62;2090216;85;27692;-59
2022/07/19 04:15:06;;;;;;;10.30;6.50;;;;;;;17.47;67.29;100842.61;2102256;84;28649;-60
2022/07/19 04:18:07;;;;;;;9.63;5.90;;;;;;;17.61;67.30;100841.64;2090130;85;30995;-61
2022/07/19 04:21:09;;;;;;;11.28;6.75;;;;;;;17.77;67.19;100838.73;2090035;84;33631;-61
2022/07/19 04:24:10;;;;;;;9.15;6.03;;;;;;;17.95;67.08;100841.09;2089185;84;30560;-61
2022/07/19 04:27:11;;;;;;;10.18;6.55;;;;;;;18.15;66.87;100843.73;2089439;85;28047;-59
2022/07/19 04:30:13;;;;;;;12.50;6.10;;;;;;;18.34;66.58;100848.19;2089410;85;29023;-60
2022/07/19 04:33:15;;;;;;;14.35;6.67;;;;;;;18.54;66.39;100852.60;2089420;85;32241;-59
2022/07/19 04:36:17;;;;;;;12.78;6.65;;;;;;;18.73;65.85;100851.23;2089241;85;33027;-61
2022/07/19 04:39:18;;;;;;;11.90;7.12;;;;;;;18.90;65.62;100855.39;2088967;85;29308;-60
2022/07/19 04:42:19;;;;;;;13.50;6.72;;;;;;;19.02;65.08;100853.13;2089846;85;27703;-62
2022/07/19 04:45:20;;;;;;;11.00;6.75;;;;;;;19.13;64.94;100858.59;2089179;85;29483;-61
2022/07/19 04:48:22;;;;;;;14.58;6.55;;;;;;;19.50;65.44;100857.59;2088962;85;30979;-60
2022/07/19 04:51:24;;;;;;;14.98;5.92;;;;;;;20.81;65.22;100855.33;2089345;85;33360;-61
2022/07/19 04:54:25;;;;;;;13.13;6.42;;;;;;;22.31;64.29;100855.47;2090077;85;29711;-61
2022/07/19 04:57:27;;;;;;;18.95;6.78;;;;;;;23.70;62.53;100857.23;2090208;84;27580;-60
2022/07/19 05:00:28;;;;;;;13.22;7.15;;;;;;;24.94;60.62;100845.08;2102213;84;29552;-61
2022/07/19 05:03:30;;;;;;;16.42;6.55;;;;;;;26.06;58.61;100846.70;2090055;85;31373;-63
2022/07/19 05:06:32;;;;;;;20.12;7.78;;;;;;;27.21;56.90;100854.08;2089902;85;33600;-61
2022/07/19 05:09:33;;;;;;;25.27;8.05;;;;;;;28.24;54.95;100842.88;2106750;84;29779;-63
2022/07/19 05:12:35;;;;;;;13.65;6.60;;;;;;;29.21;53.46;100840.19;2108579;84;27622;-62
2022/07/19 05:15:36;;;;;;;14.05;5.90;;;;;;;30.15;51.41;100834.73;2108741;84;29051;-61
2022/07/19 05:18:38;;;;;;;12.40;5.92;;;;;;;30.99;49.71;100835.80;2108590;84;31397;-61
2022/07/19 05:21:41;;;;;;;14.47;7.00;;;;;;;31.56;47.57;100841.39;2108186;84;32998;-62
2022/07/19 05:24:44;;;;;;;11.70;6.30;;;;;;;31.61;46.14;100837.50;2107831;84;29334;-61
2022/07/19 05:27:46;;;;;;;13.83;6.17;;;;;;;31.78;45.32;100836.66;2108820;84;27845;-62
2022/07/19 05:30:48;;;;;;;11.15;6.20;;;;;;;32.28;43.71;100829.06;2108910;84;29312;-62
2022/07/19 05:33:50;;;;;;;11.50;5.72;;;;;;;32.82;42.96;100831.17;2108251;84;32400;-61
2022/07/19 05:36:53;;;;;;;14.47;6.22;;;;;;;33.32;41.32;100828.85;2108233;84;33800;-62
2022/07/19 05:39:55;;;;;;;9.80;5.25;;;;;;;33.78;40.42;100831.25;2108256;84;29765;-60
2022/07/19 05:42:57;;;;;;;15.72;6.05;;;;;;;33.78;39.30;100831.25;2108428;84;27730;-60
2022/07/19 05:45:59;;;;;;;9.70;5.12;;;;;;;33.48;38.61;100823.41;2108773;84;28674;-60
2022/07/19 05:49:01;;;;;;;8.70;4.80;;;;;;;33.02;38.09;100822.86;2108236;84;31929;-59
2022/07/19 05:52:03;;;;;;;10.18;5.08;;;;;;;32.72;37.68;100826.84;2107561;84;34194;-61
2022/07/19 05:55:07;;;;;;;10.30;5.15;;;;;;;32.45;37.69;100822.30;2104525;84;31470;-60
2022/07/19 05:58:09;;;;;;;13.55;5.67;;;;;;;32.38;37.53;100826.45;2104990;84;27730;-59
2022/07/19 06:01:19;;;;;;;12.28;5.53;;;;;;;32.39;37.34;100825.38;2105016;84;29810;-60
2022/07/19 06:04:21;;;;;;;9.15;5.22;;;;;;;32.28;36.60;100826.83;2104537;84;32555;-63
2022/07/19 06:07:22;;;;;;;13.05;5.22;;;;;;;32.27;36.20;100829.28;2104685;84;34082;-64
2022/07/19 06:10:24;;;;;;;13.15;4.65;;;;;;;32.33;35.90;100826.20;2102722;84;30566;-62
2022/07/19 06:13:25;;;;;;;11.12;5.05;;;;;;;32.26;35.73;100822.89;2103250;84;28221;-63
2022/07/19 06:16:27;;;;;;;10.50;4.53;;;;;;;32.31;35.39;100823.66;2103089;84;28689;-64
2022/07/19 06:19:29;;;;;;;10.43;4.53;;;;;;;32.76;35.49;100823.13;2103128;84;32180;-64
2022/07/19 06:22:31;;;;;;;7.95;4.00;;;;;;;32.90;34.86;100823.18;2105119;84;34131;-60
2022/07/19 06:25:33;;;;;;;7.47;4.40;;;;;;;32.79;34.81;100814.36;2109189;84;29384;-64
2022/07/19 06:28:34;;;;;;;14.73;5.28;;;;;;;33.38;34.63;100811.89;2109444;84;28301;-64
2022/07/19 06:31:36;;;;;;;9.78;4.75;;;;;;;34.14;34.02;100809.58;2109535;84;29060;-63
2022/07/19 06:34:37;;;;;;;8.85;4.53;;;;;;;34.42;33.53;100812.56;2109567;84;32204;-64
2022/07/19 06:37:38;;;;;;;17.23;5.53;;;;;;;34.50;33.44;100815.06;2109343;84;34020;-64
2022/07/19 06:40:40;;;;;;;9.20;4.33;;;;;;;35.05;32.92;100810.88;2109574;84;29573;-61
2022/07/19 06:43:43;;;;;;;13.40;4.20;;;;;;;35.62;32.43;100803.51;2109527;84;27619;-62
2022/07/19 06:46:44;;;;;;;14.58;4.60;;;;;;;36.16;31.82;100803.75;2078298;85;28749;-63
2022/07/19 06:49:46;;;;;;;13.98;5.03;;;;;;;36.62;30.89;100807.00;2115091;84;32239;-63
2022/07/19 06:52:47;;;;;;;10.13;4.85;;;;;;;36.96;30.71;100798.98;2115524;84;33871;-63
2022/07/19 06:55:48;;;;;;;8.70;4.17;;;;;;;37.40;30.40;100798.66;2115125;84;29689;-64
2022/07/19 06:58:50;;;;;;;10.90;4.35;;;;;;;37.81;29.89;100800.16;2090956;85;27669;-61
2022/07/19 07:01:52;;;;;;;11.25;4.10;;;;;;;38.29;29.33;100803.13;2090906;85;29042;-60
2022/07/19 07:04:53;;;;;;;19.27;4.43;;;;;;;38.72;28.60;100798.08;2091140;84;31783;-62
2022/07/19 07:07:55;;;;;;;14.85;4.90;;;;;;;38.91;27.85;100799.28;2089911;84;32691;-64
2022/07/19 07:10:56;;;;;;;10.20;4.05;;;;;;;38.70;27.25;100806.45;2083699;85;30573;-61
2022/07/19 07:13:57;;;;;;;8.20;4.35;;;;;;;38.21;27.12;100800.75;2083936;85;27736;-62
2022/07/19 07:16:58;;;;;;;12.65;3.95;;;;;;;38.01;26.87;100799.77;2083989;85;28550;-60
2022/07/19 07:20:01;;;;;;;13.43;4.55;;;;;;;38.10;27.18;100794.62;2058529;85;31420;-63
2022/07/19 07:23:03;;;;;;;9.98;4.42;;;;;;;38.40;26.64;100794.95;2083492;85;33404;-63
2022/07/19 07:26:05;;;;;;;13.55;4.08;;;;;;;38.66;26.66;100797.68;2084160;84;29693;-63
2022/07/19 07:29:06;;;;;;;8.83;2.98;;;;;;;38.90;26.39;100791.41;2084011;84;27600;-63
2022/07/19 07:32:08;;;;;;;4.85;1.85;;;;;;;39.08;25.89;100795.63;2083867;85;28733;-60
2022/07/19 07:35:09;;;;;;;6.20;3.25;;;;;;;39.24;26.02;100800.37;2102577;84;31963;-63
2022/07/19 07:38:10;;;;;;;7.50;3.10;;;;;;;39.43;25.55;100799.56;2090288;85;33730;-63
2022/07/19 07:41:11;;;;;;;6.47;3.27;;;;;;;39.47;24.92;100795.14;2090351;84;29777;-60
2022/07/19 07:44:14;;;;;;;2.70;1.12;;;;;;;39.38;24.54;100804.24;2090264;85;27590;-60
2022/07/19 07:47:19;;;;;;;9.65;3.47;;;;;;;39.44;24.81;100797.05;2090242;85;29846;-61
2022/07/19 07:50:21;;;;;;;5.20;2.20;;;;;;;39.39;24.01;100796.97;2090199;84;32277;-62
2022/07/19 07:53:22;;;;;;;2.45;1.65;;;;;;;39.40;23.85;100792.22;2089134;85;33815;-62
2022/07/19 07:56:24;;;;;;;3.27;1.30;;;;;;;39.28;23.89;100795.09;2089048;85;29749;-63
2022/07/19 07:59:26;;;;;;;2.57;1.07;;;;;;;39.28;24.22;100790.89;2089371;85;27713;-60
2022/07/19 08:02:28;;;;;;;7.05;2.30;;;;;;;39.34;24.03;100796.91;2089251;85;29075;-63
2022/07/19 08:05:29;;;;;;;3.15;1.47;;;;;;;39.44;23.72;100792.84;2089110;85;31469;-62
2022/07/19 08:08:31;;;;;;;7.62;1.85;;;;;;;39.41;23.38;100799.53;2089030;84;33052;-61
2022/07/19 08:11:33;;;;;;;6.10;2.60;;;;;;;39.41;23.11;100796.73;2089055;85;29764;-60
2022/07/19 08:14:36;;;;;;;1.47;1.10;;;;;;;39.28;22.58;100798.77;2089124;85;36181;-63
2022/07/19 08:17:37;;;;;;;1.27;1.17;;;;;;;39.19;23.33;100794.67;2088921;85;29920;-62
2022/07/19 08:20:39;;;;;;;0.78;0.70;;;;;;;39.26;23.16;100790.29;2089317;85;31384;-62
2022/07/19 08:23:41;;;;;;;2.67;0.90;;;;;;;39.36;23.31;100794.70;2089916;85;32734;-60
2022/07/19 08:26:43;;;;;;;10.93;2.53;;;;;;;39.45;23.27;100794.55;2090516;84;30147;-61
2022/07/19 08:29:46;;;;;;;1.10;1.00;;;;;;;39.54;22.67;100791.31;2090130;85;27688;-63
2022/07/19 08:32:47;;;;;;;4.10;0.93;;;;;;;39.47;23.06;100788.12;2102100;84;29921;-61
2022/07/19 08:35:49;;;;;;;1.32;1.20;;;;;;;39.48;22.78;100788.97;2050753;85;31580;-63
2022/07/19 08:38:50;;;;;;;4.05;1.70;;;;;;;39.49;22.75;100789.26;2102613;84;33390;-63
2022/07/19 08:41:51;;;;;;;3.52;1.67;;;;;;;39.28;22.11;100782.48;2090546;85;29323;-62
2022/07/19 08:44:54;;;;;;;1.80;1.40;;;;;;;39.20;21.83;100779.02;2090227;85;27698;-61
2022/07/19 08:47:57;;;;;;;4.42;1.50;;;;;;;39.21;22.02;100782.66;2090100;85;28866;-60
2022/07/19 08:50:59;;;;;;;;;;;;;;;39.17;22.19;100774.46;2104652;84;31035;-62
2022/07/19 08:54:01;;;;;;;3.87;1.17;;;;;;;39.20;22.44;100779.56;2102215;84;32301;-62
2022/07/19 09:00:30;;;;;;;3.45;1.57;;;;;;;38.87;21.07;100772.87;2083334;85;27624;-62
2022/07/19 09:03:32;;;;;;;2.50;1.77;;;;;;;38.41;21.29;100770.93;2082908;84;28709;-63
2022/07/19 09:06:40;;;;;;;1.15;0.90;;;;;;;38.26;21.40;100769.21;2083405;84;31045;-63
2022/07/19 09:09:42;;;;;;;0.90;0.90;;;;;;;38.16;21.85;100767.05;2091426;84;34313;-63
2022/07/19 09:13:11;;;;;;;0.60;0.60;;;;;;;38.12;22.36;100768.65;2101735;84;29521;-60
2022/07/19 09:16:12;;;;;;;0.85;0.85;;;;;;;37.89;22.29;100770.45;2090456;85;27706;-60
2022/07/19 09:19:35;;;;;;;6.60;2.45;;;;;;;37.75;22.54;100770.36;2090150;85;29322;-62
2022/07/19 09:22:37;;;;;;;4.40;2.25;;;;;;;37.54;21.69;100762.95;2089836;84;31499;-63
2022/07/19 09:25:52;;;;;;;4.62;2.02;;;;;;;37.24;21.71;100767.55;2043711;85;34227;-63
2022/07/19 09:28:54;;;;;;;0.70;0.70;;;;;;;37.11;22.16;100762.22;2088986;85;29382;-62
2022/07/19 09:32:17;;;;;;;5.55;2.50;;;;;;;36.93;22.85;100763.16;2089918;85;27632;-63
2022/07/19 09:35:19;;;;;;;0.60;0.60;;;;;;;36.73;21.79;100764.33;2090060;85;28643;-60
2022/07/19 09:38:43;;;;;;;5.42;2.05;;;;;;;36.51;22.88;100764.56;2089492;85;30983;-60
2022/07/19 09:41:55;;;;;;;1.33;1.00;;;;;;;36.39;22.68;100755.59;2020976;88;34305;-60
2022/07/19 09:45:06;;;;;;;1.27;1.17;;;;;;;36.15;22.66;100757.44;2055539;86;30582;-60
2022/07/19 09:48:07;;;;;;;1.17;0.93;;;;;;;35.92;22.57;100752.02;2055255;86;27784;-62
2022/07/19 09:51:09;;;;;;;1.17;0.95;;;;;;;35.67;22.68;100753.50;2055184;86;28458;-59
2022/07/19 09:54:16;;;;;;;1.80;0.90;;;;;;;35.53;23.51;100748.62;2055068;86;31407;-61
2022/07/19 09:57:25;;;;;;;0.90;0.90;;;;;;;35.40;23.88;100746.27;2055019;86;33909;-62
2022/07/19 10:00:27;;;;;;;0.98;0.90;;;;;;;35.17;23.62;100749.72;2053268;86;30181;-60
2022/07/19 10:03:29;;;;;;;1.92;1.15;;;;;;;34.88;24.29;100737.31;2054532;86;27770;-63
2022/07/19 10:06:31;;;;;;;0.60;0.60;;;;;;;34.62;24.09;100740.63;2077814;85;29019;-62
2022/07/19 10:09:32;;;;;;;0.90;0.80;;;;;;;34.30;24.55;100729.48;2079606;85;30945;-62
2022/07/19 10:12:34;;;;;;;4.25;2.33;;;;;;;34.00;24.93;100728.14;2078361;85;33390;-61
2022/07/19 10:15:39;;;;;;;2.33;1.22;;;;;;;33.64;24.24;100725.37;2079452;85;29474;-62
2022/07/19 10:19:04;;;;;;;1.17;1.10;;;;;;;33.43;24.74;100723.19;2045974;86;27808;-61
2022/07/19 10:22:12;;;;;;;5.87;2.62;;;;;;;33.29;25.46;100733.47;2016467;88;29006;-62
2022/07/19 10:25:17;;;;;;;3.72;1.75;;;;;;;33.11;25.19;100732.73;2040738;87;31025;-61
2022/07/19 10:28:37;;;;;;;1.10;1.10;;;;;;;32.99;25.41;100726.13;2040396;87;34002;-62
2022/07/19 10:31:40;;;;;;;1.30;1.20;;;;;;;32.82;25.87;100727.95;2040767;87;30493;-60
2022/07/19 10:34:47;;;;;;;2.00;1.80;;;;;;;32.70;25.71;100717.98;2040900;87;27702;-62
2022/07/19 10:38:06;;;;;;;1.32;0.75;;;;;;;32.54;25.98;100718.41;2040848;87;28708;-60
2022/07/19 10:41:14;;;;;;;1.98;0.72;;;;;;;32.37;26.43;100714.65;2043172;87;31159;-63
2022/07/19 10:44:15;;;;;;;0.60;0.60;;;;;;;32.26;26.49;100719.44;2040539;87;32152;-60
2022/07/19 10:47:16;;;;;;;2.22;0.85;;;;;;;32.14;27.17;100717.77;2044580;87;30231;-62
2022/07/19 10:50:18;;;;;;;0.62;0.62;;;;;;;32.05;26.76;100703.80;2044014;87;28335;-60
2022/07/19 10:53:45;;;;;;;4.33;2.55;;;;;;;31.94;26.64;100706.09;2019746;88;29015;-61
2022/07/19 10:56:57;;;;;;;7.95;2.30;;;;;;;31.81;26.45;100701.37;2019830;88;31938;-61
2022/07/19 10:59:59;;;;;;;1.50;1.10;;;;;;;31.77;26.36;100700.62;2019604;88;32883;-63
2022/07/19 11:03:26;;;;;;;4.00;1.92;;;;;;;31.73;26.49;100696.00;2019854;88;29913;-62
2022/07/19 11:06:28;;;;;;;0.60;0.60;;;;;;;31.72;25.95;100690.68;2020144;88;27849;-63
2022/07/19 11:09:55;;;;;;;3.10;1.67;;;;;;;31.60;27.28;100684.32;2019903;88;29063;-60
2022/07/19 11:12:59;;;;;;;0.95;0.93;;;;;;;31.50;26.83;100682.44;2020085;88;31479;-59
2022/07/19 11:16:02;;;;;;;2.55;0.75;;;;;;;31.43;27.55;100682.95;2021356;88;33010;-62
2022/07/19 11:19:09;;;;;;;0.70;0.70;;;;;;;31.40;27.60;100675.89;2021491;88;30680;-63
2022/07/19 11:22:11;;;;;;;2.35;1.20;;;;;;;31.39;27.86;100678.34;2041696;86;27686;-62
2022/07/19 11:25:15;;;;;;;7.17;2.25;;;;;;;31.40;27.33;100673.67;2044600;87;29082;-62
2022/07/19 11:28:24;;;;;;;2.70;1.15;;;;;;;31.35;27.04;100674.30;2044571;87;31150;-62
2022/07/19 11:31:26;;;;;;;6.75;1.95;;;;;;;31.30;27.29;100670.73;2044249;86;34178;-62
2022/07/19 11:34:27;;;;;;;7.40;2.60;;;;;;;31.27;26.98;100674.45;2044601;87;29326;-62
2022/07/19 11:37:33;;;;;;;8.68;3.02;;;;;;;31.25;26.24;100671.02;2044684;87;27617;-62
2022/07/19 11:40:37;;;;;;;0.78;0.68;;;;;;;31.24;26.38;100674.84;2053069;86;28635;-62
2022/07/19 11:43:40;;;;;;;7.45;2.95;;;;;;;31.26;27.24;100665.81;2063445;86;32497;-64
2022/07/19 11:46:41;;;;;;;3.10;1.52;;;;;;;31.25;27.13;100671.02;2043371;87;33797;-63
2022/07/19 11:49:43;;;;;;;5.55;1.15;;;;;;;31.25;27.20;100668.25;2040266;87;30448;-62
2022/07/19 11:52:49;;;;;;;4.65;1.80;;;;;;;31.24;27.11;100664.65;2050702;86;27702;-62
2022/07/19 11:55:51;;;;;;;0.80;0.80;;;;;;;31.18;26.69;100660.78;2065347;86;28085;-63
2022/07/19 11:58:55;;;;;;;2.25;0.82;;;;;;;31.15;27.04;100655.66;2065126;86;31623;-62
2022/07/19 12:01:57;;;;;;;5.35;2.20;;;;;;;31.01;26.50;100656.05;2064990;86;33026;-62
2022/07/19 12:05:12;;;;;;;6.78;1.98;;;;;;;30.95;26.28;100657.40;2065295;86;30532;-63
2022/07/19 12:08:13;;;;;;;2.45;1.27;;;;;;;30.95;25.37;100653.25;2065479;86;27629;-63
2022/07/19 12:11:23;;;;;;;1.55;0.88;;;;;;;30.98;26.49;100642.62;2065326;86;29858;-64
2022/07/19 12:14:34;;;;;;;1.98;1.47;;;;;;;30.99;27.07;100651.80;2064991;86;32275;-64
2022/07/19 12:17:35;;;;;;;3.80;1.45;;;;;;;31.02;26.63;100652.78;2065496;86;33021;-62
2022/07/19 12:20:36;;;;;;;1.35;1.22;;;;;;;31.04;26.96;100649.25;2069298;85;29674;-62
2022/07/19 12:23:39;;;;;;;5.20;2.33;;;;;;;31.04;26.93;100640.95;2074240;85;27661;-60
2022/07/19 12:26:47;;;;;;;2.83;1.20;;;;;;;31.01;25.78;100642.22;2051358;86;29862;-60
2022/07/19 12:29:50;;;;;;;0.60;0.60;;;;;;;31.03;26.16;100643.39;2068625;85;31067;-62
2022/07/19 12:32:51;;;;;;;0.60;0.60;;;;;;;31.01;26.18;100632.53;2051719;86;32972;-63
2022/07/19 12:35:53;;;;;;;1.27;1.17;;;;;;;30.92;26.73;100637.92;2077577;85;29759;-63
2022/07/19 12:38:54;;;;;;;0.70;0.70;;;;;;;30.82;26.32;100636.89;2051489;86;27630;-63
2022/07/19 12:42:04;;;;;;;1.52;1.20;;;;;;;30.75;26.69;100634.08;2077514;85;29858;-63
2022/07/19 12:45:07;;;;;;;0.50;0.50;;;;;;;30.73;26.47;100632.05;2051296;86;31937;-64
2022/07/19 12:48:14;;;;;;;0.55;0.55;;;;;;;30.71;27.51;100625.85;2078017;85;33553;-62
2022/07/19 12:51:16;;;;;;;0.90;0.70;;;;;;;30.66;27.34;100618.68;2050713;86;29334;-62
2022/07/19 12:54:19;;;;;;;1.70;1.10;;;;;;;30.63;27.78;100619.08;2050431;86;27788;-61
2022/07/19 12:57:20;;;;;;;3.33;1.32;;;;;;;30.55;27.10;100610.41;2050435;86;28664;-61
2022/07/19 13:00:25;;;;;;;4.03;2.00;;;;;;;30.53;26.86;100606.95;2050360;86;31445;-63
2022/07/19 13:03:26;;;;;;;2.87;2.37;;;;;;;30.56;26.93;100608.51;2050447;86;32942;-60
2022/07/19 13:06:27;;;;;;;0.42;0.42;;;;;;;30.63;26.36;100609.39;2050684;86;29713;-62
2022/07/19 13:09:29;;;;;;;4.47;2.10;;;;;;;30.67;27.15;100602.41;2050158;86;27745;-62
2022/07/19 13:12:30;;;;;;;3.55;2.00;;;;;;;30.63;26.77;100598.33;2050074;86;29323;-62
2022/07/19 13:15:32;;;;;;;0.90;0.80;;;;;;;30.67;26.15;100592.73;2050505;86;31216;-61
2022/07/19 13:18:34;;;;;;;5.12;2.87;;;;;;;30.70;26.78;100591.46;2050023;86;34397;-62
2022/07/19 13:21:35;;;;;;;6.33;1.65;;;;;;;30.74;26.67;100588.63;2061122;86;29692;-62
2022/07/19 13:24:37;;;;;;;3.98;1.75;;;;;;;30.83;26.58;100587.94;2052853;86;27662;-61
2022/07/19 13:27:38;;;;;;;5.97;2.02;;;;;;;30.90;26.02;100586.92;2043051;87;29085;-63
2022/07/19 13:30:40;;;;;;;1.20;1.15;;;;;;;30.97;25.65;100588.34;2043287;87;30600;-61
2022/07/19 13:33:41;;;;;;;3.42;2.17;;;;;;;31.04;26.40;100585.09;2043269;86;34104;-62
2022/07/19 13:36:43;;;;;;;3.85;2.50;;;;;;;31.08;26.05;100589.67;2063445;85;29397;-60
2022/07/19 13:39:44;;;;;;;1.22;1.12;;;;;;;31.14;25.60;100582.50;2063868;86;27693;-59
2022/07/19 13:42:45;;;;;;;2.08;1.45;;;;;;;31.24;26.09;100575.20;2022720;87;29847;-62
2022/07/19 13:45:46;;;;;;;7.05;2.62;;;;;;;31.27;26.33;100577.56;2022106;88;32333;-60
2022/07/19 13:48:48;;;;;;;1.35;1.00;;;;;;;31.30;25.88;100577.16;2061460;86;33313;-62
2022/07/19 13:51:50;;;;;;;3.45;1.47;;;;;;;31.32;25.66;100568.11;2072591;85;29677;-63
2022/07/19 13:54:52;;;;;;;1.70;1.25;;;;;;;31.37;26.22;100566.42;2073420;85;27736;-61
2022/07/19 13:57:53;;;;;;;1.62;1.30;;;;;;;31.41;25.93;100559.09;2073353;85;29824;-60
2022/07/19 14:00:56;;;;;;;0.70;0.65;;;;;;;31.43;25.78;100561.97;2072941;85;32438;-63
2022/07/19 14:03:57;;;;;;;1.12;1.02;;;;;;;31.46;26.48;100552.37;2073199;85;33360;-62
2022/07/19 14:06:59;;;;;;;1.40;1.30;;;;;;;31.50;26.37;100546.75;2073354;85;29690;-60
2022/07/19 14:10:00;;;;;;;3.25;2.17;;;;;;;31.57;25.80;100559.23;2073166;85;27629;-62